createdAt,value
2023-02-03T00:01:36.728Z,50.50
2023-02-03T00:06:41.271Z,50.70
2023-02-03T00:11:46.340Z,50.80
2023-02-03T00:16:50.455Z,50.70
2023-02-03T00:21:56.594Z,50.80
2023-02-03T00:27:00.398Z,51.10
2023-02-03T00:32:05.130Z,50.80
2023-02-03T00:37:09.351Z,50.50
2023-02-03T00:42:14.206Z,51.00
2023-02-03T00:47:18.262Z,51.30
2023-02-03T00:52:22.168Z,51.10
2023-02-03T00:57:26.533Z,51.60
2023-02-03T01:02:30.810Z,52.00
2023-02-03T01:07:35.082Z,52.30
2023-02-03T01:12:39.201Z,52.40
2023-02-03T01:17:43.463Z,52.40
2023-02-03T01:22:48.901Z,52.50
2023-02-03T01:27:52.754Z,52.50
2023-02-03T01:32:56.801Z,52.60
2023-02-03T01:38:01.021Z,52.60
2023-02-03T01:43:05.349Z,52.30
2023-02-03T01:48:09.681Z,52.20
2023-02-03T01:53:13.639Z,52.30
2023-02-03T01:58:28.367Z,52.00
2023-02-03T02:03:39.501Z,51.80
2023-02-03T02:08:51.201Z,51.60
2023-02-03T02:13:57.482Z,51.90
2023-02-03T02:19:41.328Z,51.40
2023-02-03T02:25:00.916Z,51.00
2023-02-03T02:30:43.233Z,50.40
2023-02-03T02:36:19.507Z,49.80
2023-02-03T02:41:42.863Z,50.20
2023-02-03T02:47:00.123Z,49.60
2023-02-03T02:52:07.745Z,49.30
2023-02-03T02:57:14.779Z,49.60
2023-02-03T03:02:20.391Z,49.40
2023-02-03T03:07:28.416Z,49.60
2023-02-03T03:12:38.161Z,49.30
2023-02-03T03:17:52.244Z,49.10
2023-02-03T03:23:05.576Z,49.10
2023-02-03T03:28:17.161Z,49.10
2023-02-03T03:33:22.343Z,49.00
2023-02-03T03:38:35.265Z,48.50
2023-02-03T03:43:43.712Z,48.30
2023-02-03T03:48:56.992Z,48.50
2023-02-03T03:54:07.766Z,48.60
2023-02-03T03:59:15.404Z,49.00
2023-02-03T04:04:21.410Z,48.90
2023-02-03T04:09:26.073Z,49.00
2023-02-03T04:14:31.959Z,48.70
2023-02-03T04:19:35.942Z,48.60
2023-02-03T04:24:40.534Z,48.50
2023-02-03T04:29:44.874Z,48.40
2023-02-03T04:34:49.013Z,48.30
2023-02-03T04:39:54.463Z,48.30
2023-02-03T04:44:58.695Z,48.30
2023-02-03T04:50:03.094Z,48.20
2023-02-03T04:55:07.974Z,48.20
2023-02-03T05:00:12.635Z,48.30
2023-02-03T05:05:17.601Z,48.60
2023-02-03T05:10:21.523Z,48.30
2023-02-03T05:15:25.653Z,48.30
2023-02-03T05:20:29.750Z,48.30
2023-02-03T05:25:33.948Z,48.10
2023-02-03T05:30:38.641Z,48.10
2023-02-03T05:35:43.058Z,48.10
2023-02-03T05:41:09.355Z,48.80
2023-02-03T05:46:13.571Z,48.80
2023-02-03T05:51:18.041Z,48.30
2023-02-03T05:56:22.278Z,48.20
2023-02-03T06:01:26.395Z,48.60
2023-02-03T06:06:35.667Z,49.00
2023-02-03T06:11:39.813Z,49.30
2023-02-03T06:16:44.059Z,49.40
2023-02-03T06:21:48.246Z,49.50
2023-02-03T06:26:52.508Z,49.60
2023-02-03T06:31:56.700Z,49.80
2023-02-03T06:37:01.825Z,50.40
2023-02-03T06:42:05.876Z,50.30
2023-02-03T06:47:09.961Z,50.30
2023-02-03T06:52:15.791Z,50.40
2023-02-03T06:57:19.961Z,50.40
2023-02-03T07:02:24.328Z,50.50
2023-02-03T07:07:28.760Z,51.20
2023-02-03T07:12:33.113Z,51.70
2023-02-03T07:17:37.321Z,52.00
2023-02-03T07:22:44.248Z,52.20
2023-02-03T07:27:48.575Z,52.50
2023-02-03T07:32:53.629Z,52.50
2023-02-03T07:37:57.659Z,52.30
2023-02-03T07:43:01.879Z,52.60
2023-02-03T07:48:06.639Z,52.40
2023-02-03T07:53:10.908Z,52.00
2023-02-03T07:58:15.632Z,51.90
2023-02-03T08:03:19.673Z,51.30
2023-02-03T08:08:23.929Z,50.30
2023-02-03T08:13:28.333Z,49.30
2023-02-03T08:18:32.818Z,48.40
2023-02-03T08:23:36.905Z,47.80
2023-02-03T08:28:41.132Z,47.50
2023-02-03T08:33:45.382Z,47.50
2023-02-03T08:38:49.764Z,47.50
2023-02-03T08:43:54.709Z,47.30
2023-02-03T08:48:58.614Z,47.00
2023-02-03T08:54:03.373Z,46.60
2023-02-03T08:59:08.319Z,46.30
2023-02-03T09:04:13.492Z,46.30
2023-02-03T09:09:18.632Z,45.90
2023-02-03T09:14:22.883Z,45.80
2023-02-03T09:19:27.084Z,45.50
2023-02-03T09:24:31.141Z,45.40
2023-02-03T09:29:35.292Z,45.20
2023-02-03T09:34:41.757Z,45.00
2023-02-03T09:39:46.237Z,45.20
2023-02-03T09:45:17.273Z,45.00
2023-02-03T09:50:25.536Z,44.80
2023-02-03T09:55:43.759Z,44.50
2023-02-03T10:01:00.385Z,44.80
2023-02-03T10:06:37.747Z,44.40
2023-02-03T10:11:57.053Z,44.70
2023-02-03T10:17:07.634Z,44.20
2023-02-03T10:22:17.005Z,44.10
2023-02-03T10:27:23.439Z,44.50
2023-02-03T10:32:28.306Z,44.10
2023-02-03T10:37:38.648Z,43.80
2023-02-03T10:43:04.198Z,43.80
2023-02-03T10:48:17.359Z,43.90
2023-02-03T10:53:34.184Z,43.70
2023-02-03T10:58:40.063Z,43.80
2023-02-03T11:04:05.368Z,43.80
2023-02-03T11:09:29.020Z,44.10
2023-02-03T11:14:43.718Z,43.80
2023-02-03T11:19:49.599Z,43.70
2023-02-03T11:24:54.546Z,43.10
2023-02-03T11:30:25.269Z,43.70
2023-02-03T11:35:32.063Z,43.80
2023-02-03T11:40:38.870Z,43.70
2023-02-03T11:45:53.464Z,43.60
2023-02-03T11:51:03.637Z,43.20
2023-02-03T11:56:25.828Z,43.50
2023-02-03T12:08:19.045Z,43.10
2023-02-03T12:13:45.808Z,43.10
2023-02-03T12:19:08.983Z,43.00
2023-02-03T12:24:53.822Z,43.10
2023-02-03T12:30:07.580Z,43.00
2023-02-03T12:35:18.319Z,42.80
2023-02-03T12:40:49.530Z,42.80
2023-02-03T12:46:02.099Z,42.90
2023-02-03T12:51:12.481Z,43.00
2023-02-03T12:56:23.923Z,42.50
2023-02-03T13:01:51.692Z,42.90
2023-02-03T13:07:15.986Z,42.90
2023-02-03T13:12:23.069Z,42.70
2023-02-03T13:17:32.346Z,42.90
2023-02-03T13:22:36.366Z,43.00
2023-02-03T13:27:48.190Z,43.20
2023-02-03T13:33:05.718Z,42.80
2023-02-03T13:38:27.558Z,42.90
2023-02-03T13:43:45.076Z,43.00
2023-02-03T13:48:49.843Z,42.60
2023-02-03T13:54:00.881Z,43.20
2023-02-03T13:59:04.899Z,43.30
2023-02-03T14:04:29.756Z,43.10
2023-02-03T14:09:38.623Z,43.50
2023-02-03T14:15:03.534Z,43.40
2023-02-03T14:20:27.777Z,43.40
2023-02-03T14:25:34.526Z,43.50
2023-02-03T14:31:07.757Z,43.80
2023-02-03T14:36:33.140Z,43.80
2023-02-03T14:41:48.052Z,43.60
2023-02-03T14:47:11.180Z,43.80
2023-02-03T14:52:42.430Z,43.80
2023-02-03T14:58:14.100Z,44.20
2023-02-03T15:03:23.047Z,44.30
2023-02-03T15:08:43.967Z,45.00
2023-02-03T15:13:51.188Z,45.10
2023-02-03T15:19:01.366Z,45.20
2023-02-03T15:24:15.081Z,45.60
2023-02-03T15:29:37.126Z,45.50
2023-02-03T15:34:50.085Z,45.20
2023-02-03T15:40:03.380Z,45.50
2023-02-03T15:45:09.752Z,45.50
2023-02-03T15:50:37.512Z,45.90
2023-02-03T15:55:51.350Z,45.60
2023-02-03T16:01:01.813Z,45.60
2023-02-03T16:06:23.622Z,45.70
2023-02-03T16:11:34.137Z,46.00
2023-02-03T16:16:58.792Z,45.60
2023-02-03T16:22:31.859Z,45.70
2023-02-03T16:27:37.179Z,45.70
2023-02-03T16:33:18.151Z,45.10
2023-02-03T16:38:41.531Z,44.30
2023-02-03T16:44:05.630Z,43.80
2023-02-03T16:49:28.400Z,43.40
2023-02-03T16:54:34.568Z,43.40
2023-02-03T16:59:41.072Z,43.20
2023-02-03T17:04:45.310Z,43.00
2023-02-03T17:09:50.858Z,42.90
2023-02-03T17:14:58.582Z,42.80
2023-02-03T17:20:03.829Z,42.60
2023-02-03T17:25:09.428Z,42.50
2023-02-03T17:30:14.864Z,42.40
2023-02-03T17:35:19.243Z,42.50
2023-02-03T17:56:41.242Z,42.10
2023-02-03T18:01:48.190Z,42.30
2023-02-03T18:06:55.956Z,42.30
2023-02-03T18:12:02.416Z,42.30
2023-02-03T18:17:09.126Z,43.20
2023-02-03T18:22:16.111Z,45.00
2023-02-03T18:27:22.042Z,45.60
2023-02-03T18:32:28.052Z,45.00
2023-02-03T18:37:34.527Z,45.10
2023-02-03T18:42:40.104Z,45.00
2023-02-03T18:47:49.111Z,46.50
2023-02-03T18:53:02.339Z,47.40
2023-02-03T18:58:12.037Z,48.10
2023-02-03T19:03:21.384Z,48.80
2023-02-03T19:08:27.577Z,49.30
2023-02-03T19:13:39.061Z,49.60
2023-02-03T19:18:50.873Z,49.10
2023-02-03T19:23:58.004Z,49.70
2023-02-03T19:29:04.999Z,49.10
2023-02-03T19:34:17.255Z,49.20
2023-02-03T19:39:27.070Z,49.10
2023-02-03T19:44:38.318Z,50.10
2023-02-03T19:50:00.103Z,49.40
2023-02-03T19:55:06.673Z,49.90
2023-02-03T20:00:16.795Z,49.90
2023-02-03T20:05:26.598Z,50.30
2023-02-03T20:10:33.638Z,50.20
2023-02-03T20:15:42.197Z,50.30
2023-02-03T20:20:59.992Z,50.70
2023-02-03T20:26:05.773Z,50.40
2023-02-03T20:31:13.707Z,50.10
2023-02-03T20:36:23.012Z,50.20
2023-02-03T20:41:32.071Z,50.20
2023-02-03T20:46:41.734Z,50.10
2023-02-03T20:51:50.153Z,50.00
2023-02-03T20:56:56.758Z,52.00
2023-02-03T21:02:10.679Z,52.70
2023-02-03T21:07:20.208Z,52.30
2023-02-03T21:12:33.749Z,52.20
2023-02-03T21:17:42.059Z,52.70
2023-02-03T21:22:50.113Z,52.30
2023-02-03T21:27:59.338Z,52.50
2023-02-03T21:33:43.181Z,52.70
2023-02-03T21:38:56.770Z,53.00
2023-02-03T21:44:02.861Z,53.00
2023-02-03T21:49:15.949Z,53.80
2023-02-03T21:54:35.867Z,53.40
2023-02-03T21:59:47.568Z,52.80
2023-02-03T22:04:52.708Z,52.80
2023-02-03T22:09:57.964Z,52.80
2023-02-03T22:15:02.398Z,52.80
2023-02-03T22:20:08.094Z,52.60
2023-02-03T22:25:12.421Z,52.40
2023-02-03T22:30:18.458Z,52.50
2023-02-03T22:35:22.409Z,52.40
2023-02-03T22:40:26.637Z,52.70
2023-02-03T22:45:30.884Z,52.00
2023-02-03T22:50:39.474Z,52.80
2023-02-03T22:55:51.391Z,52.90
2023-02-03T23:01:03.244Z,53.30
2023-02-03T23:06:12.603Z,52.70
2023-02-03T23:11:17.043Z,52.70
2023-02-03T23:16:22.518Z,52.70
2023-02-03T23:21:26.852Z,52.50
2023-02-03T23:26:34.316Z,51.90
2023-02-03T23:31:39.315Z,51.80
2023-02-03T23:36:44.058Z,51.70
2023-02-03T23:41:48.313Z,51.30
2023-02-03T23:46:52.547Z,51.10
2023-02-03T23:51:56.881Z,50.70
2023-02-03T23:57:01.113Z,51.60
